sensor_id;sensor_type;location;lat;lon;timestamp;P1;durP1;ratioP1;P2;durP2;ratioP2
22937;SDS011;11634;42.734;23.298;2022-09-09T00:01:07;11.52;;;10.40;;
22937;SDS011;11634;42.734;23.298;2022-09-09T00:09:29;11.70;;;10.32;;
22937;SDS011;11634;42.734;23.298;2022-09-09T00:17:40;13.15;;;11.75;;
22937;SDS011;11634;42.734;23.298;2022-09-09T00:23:00;12.48;;;10.63;;
22937;SDS011;11634;42.734;23.298;2022-09-09T00:26:04;12.20;;;10.82;;
22937;SDS011;11634;42.734;23.298;2022-09-09T00:28:36;13.38;;;11.63;;
22937;SDS011;11634;42.734;23.298;2022-09-09T00:31:23;15.23;;;12.15;;
22937;SDS011;11634;42.734;23.298;2022-09-09T00:33:52;14.27;;;11.90;;
22937;SDS011;11634;42.734;23.298;2022-09-09T00:36:20;14.25;;;11.82;;
22937;SDS011;11634;42.734;23.298;2022-09-09T00:38:55;13.68;;;12.27;;
22937;SDS011;11634;42.734;23.298;2022-09-09T00:43:56;13.95;;;12.25;;
22937;SDS011;11634;42.734;23.298;2022-09-09T00:59:52;15.30;;;13.32;;
22937;SDS011;11634;42.734;23.298;2022-09-09T01:05:20;13.98;;;12.43;;
22937;SDS011;11634;42.734;23.298;2022-09-09T01:08:33;13.57;;;12.18;;
22937;SDS011;11634;42.734;23.298;2022-09-09T01:11:02;14.63;;;13.13;;
22937;SDS011;11634;42.734;23.298;2022-09-09T01:13:30;15.13;;;13.05;;
22937;SDS011;11634;42.734;23.298;2022-09-09T01:16:03;14.95;;;13.50;;
22937;SDS011;11634;42.734;23.298;2022-09-09T01:18:36;14.02;;;12.63;;
22937;SDS011;11634;42.734;23.298;2022-09-09T01:28:48;14.13;;;12.82;;
22937;SDS011;11634;42.734;23.298;2022-09-09T01:31:20;14.30;;;12.98;;
22937;SDS011;11634;42.734;23.298;2022-09-09T01:33:51;14.32;;;12.82;;
22937;SDS011;11634;42.734;23.298;2022-09-09T01:36:23;14.77;;;13.30;;
22937;SDS011;11634;42.734;23.298;2022-09-09T01:38:55;15.48;;;13.65;;
22937;SDS011;11634;42.734;23.298;2022-09-09T01:41:21;15.57;;;14.07;;
22937;SDS011;11634;42.734;23.298;2022-09-09T01:43:54;15.27;;;13.73;;
22937;SDS011;11634;42.734;23.298;2022-09-09T01:46:21;16.25;;;13.82;;
22937;SDS011;11634;42.734;23.298;2022-09-09T01:48:48;13.93;;;12.57;;
22937;SDS011;11634;42.734;23.298;2022-09-09T01:51:15;15.70;;;14.00;;
22937;SDS011;11634;42.734;23.298;2022-09-09T01:53:41;14.73;;;13.30;;
22937;SDS011;11634;42.734;23.298;2022-09-09T01:56:29;14.48;;;13.07;;
22937;SDS011;11634;42.734;23.298;2022-09-09T02:04:07;13.85;;;12.55;;
22937;SDS011;11634;42.734;23.298;2022-09-09T02:07:01;14.00;;;12.80;;
22937;SDS011;11634;42.734;23.298;2022-09-09T02:09:29;14.35;;;13.07;;
22937;SDS011;11634;42.734;23.298;2022-09-09T02:12:16;13.55;;;12.45;;
22937;SDS011;11634;42.734;23.298;2022-09-09T02:15:03;15.02;;;13.50;;
22937;SDS011;11634;42.734;23.298;2022-09-09T02:17:43;14.30;;;12.77;;
22937;SDS011;11634;42.734;23.298;2022-09-09T02:20:16;17.42;;;13.50;;
22937;SDS011;11634;42.734;23.298;2022-09-09T02:22:51;20.40;;;14.15;;
22937;SDS011;11634;42.734;23.298;2022-09-09T02:25:21;17.45;;;14.35;;
22937;SDS011;11634;42.734;23.298;2022-09-09T02:27:51;14.40;;;12.95;;
22937;SDS011;11634;42.734;23.298;2022-09-09T02:30:18;14.95;;;13.65;;
22937;SDS011;11634;42.734;23.298;2022-09-09T02:32:51;14.93;;;13.52;;
22937;SDS011;11634;42.734;23.298;2022-09-09T02:35:26;17.65;;;14.00;;
22937;SDS011;11634;42.734;23.298;2022-09-09T02:37:56;17.75;;;14.05;;
22937;SDS011;11634;42.734;23.298;2022-09-09T02:40:27;14.93;;;13.27;;
22937;SDS011;11634;42.734;23.298;2022-09-09T02:42:58;15.73;;;14.07;;
22937;SDS011;11634;42.734;23.298;2022-09-09T02:45:27;15.77;;;14.27;;
22937;SDS011;11634;42.734;23.298;2022-09-09T02:48:07;16.00;;;14.45;;
22937;SDS011;11634;42.734;23.298;2022-09-09T02:51:28;15.50;;;13.95;;
22937;SDS011;11634;42.734;23.298;2022-09-09T02:56:30;15.13;;;13.73;;
22937;SDS011;11634;42.734;23.298;2022-09-09T02:59:04;16.27;;;14.57;;
22937;SDS011;11634;42.734;23.298;2022-09-09T03:01:31;16.90;;;15.07;;
22937;SDS011;11634;42.734;23.298;2022-09-09T03:03:58;16.02;;;14.40;;
22937;SDS011;11634;42.734;23.298;2022-09-09T03:06:24;15.75;;;14.15;;
22937;SDS011;11634;42.734;23.298;2022-09-09T03:08:58;16.05;;;14.35;;
22937;SDS011;11634;42.734;23.298;2022-09-09T03:11:27;16.35;;;14.48;;
22937;SDS011;11634;42.734;23.298;2022-09-09T03:13:54;15.80;;;14.40;;
22937;SDS011;11634;42.734;23.298;2022-09-09T03:16:22;16.35;;;14.85;;
22937;SDS011;11634;42.734;23.298;2022-09-09T03:18:51;16.05;;;14.00;;
22937;SDS011;11634;42.734;23.298;2022-09-09T03:21:18;16.45;;;14.75;;
22937;SDS011;11634;42.734;23.298;2022-09-09T03:23:44;16.10;;;14.45;;
22937;SDS011;11634;42.734;23.298;2022-09-09T03:26:10;15.07;;;13.68;;
22937;SDS011;11634;42.734;23.298;2022-09-09T03:28:42;15.88;;;14.30;;
22937;SDS011;11634;42.734;23.298;2022-09-09T03:31:09;17.40;;;13.93;;
22937;SDS011;11634;42.734;23.298;2022-09-09T03:33:39;16.17;;;14.57;;
22937;SDS011;11634;42.734;23.298;2022-09-09T03:36:07;15.73;;;14.15;;
22937;SDS011;11634;42.734;23.298;2022-09-09T03:38:36;16.38;;;14.68;;
22937;SDS011;11634;42.734;23.298;2022-09-09T03:41:02;15.52;;;14.13;;
22937;SDS011;11634;42.734;23.298;2022-09-09T03:43:29;16.05;;;14.23;;
22937;SDS011;11634;42.734;23.298;2022-09-09T03:45:55;16.13;;;14.50;;
22937;SDS011;11634;42.734;23.298;2022-09-09T03:48:23;17.90;;;14.55;;
22937;SDS011;11634;42.734;23.298;2022-09-09T03:50:51;17.10;;;14.98;;
22937;SDS011;11634;42.734;23.298;2022-09-09T03:53:19;16.30;;;14.77;;
22937;SDS011;11634;42.734;23.298;2022-09-09T03:55:47;17.33;;;15.35;;
22937;SDS011;11634;42.734;23.298;2022-09-09T03:58:14;17.95;;;15.60;;
22937;SDS011;11634;42.734;23.298;2022-09-09T04:01:01;16.17;;;14.55;;
22937;SDS011;11634;42.734;23.298;2022-09-09T04:03:39;17.23;;;15.52;;
22937;SDS011;11634;42.734;23.298;2022-09-09T04:06:07;19.95;;;16.67;;
22937;SDS011;11634;42.734;23.298;2022-09-09T04:08:34;18.55;;;16.40;;
22937;SDS011;11634;42.734;23.298;2022-09-09T04:11:02;19.13;;;16.10;;
22937;SDS011;11634;42.734;23.298;2022-09-09T04:13:33;19.63;;;16.70;;
22937;SDS011;11634;42.734;23.298;2022-09-09T04:16:01;18.25;;;15.07;;
22937;SDS011;11634;42.734;23.298;2022-09-09T04:18:29;19.48;;;16.52;;
22937;SDS011;11634;42.734;23.298;2022-09-09T04:20:56;21.00;;;15.65;;
22937;SDS011;11634;42.734;23.298;2022-09-09T04:23:28;18.17;;;15.73;;
22937;SDS011;11634;42.734;23.298;2022-09-09T04:25:56;19.08;;;16.13;;
22937;SDS011;11634;42.734;23.298;2022-09-09T04:28:24;19.85;;;16.67;;
22937;SDS011;11634;42.734;23.298;2022-09-09T04:30:52;19.40;;;16.10;;
22937;SDS011;11634;42.734;23.298;2022-09-09T04:33:18;19.33;;;15.40;;
22937;SDS011;11634;42.734;23.298;2022-09-09T04:35:48;17.75;;;15.98;;
22937;SDS011;11634;42.734;23.298;2022-09-09T04:38:18;17.77;;;15.98;;
22937;SDS011;11634;42.734;23.298;2022-09-09T04:40:47;16.45;;;14.80;;
22937;SDS011;11634;42.734;23.298;2022-09-09T04:43:13;22.67;;;16.65;;
22937;SDS011;11634;42.734;23.298;2022-09-09T04:45:42;20.42;;;16.40;;
22937;SDS011;11634;42.734;23.298;2022-09-09T04:48:08;19.33;;;17.38;;
22937;SDS011;11634;42.734;23.298;2022-09-09T04:50:35;20.23;;;16.08;;
22937;SDS011;11634;42.734;23.298;2022-09-09T04:53:02;17.85;;;16.02;;
22937;SDS011;11634;42.734;23.298;2022-09-09T04:55:32;18.98;;;16.08;;
22937;SDS011;11634;42.734;23.298;2022-09-09T04:58:03;19.50;;;15.82;;
22937;SDS011;11634;42.734;23.298;2022-09-09T05:00:30;24.83;;;15.02;;
22937;SDS011;11634;42.734;23.298;2022-09-09T05:02:56;20.92;;;15.13;;
22937;SDS011;11634;42.734;23.298;2022-09-09T05:05:23;18.63;;;15.75;;
22937;SDS011;11634;42.734;23.298;2022-09-09T05:10:53;16.45;;;13.93;;
22937;SDS011;11634;42.734;23.298;2022-09-09T05:13:22;17.63;;;14.23;;
22937;SDS011;11634;42.734;23.298;2022-09-09T05:15:52;16.92;;;13.77;;
22937;SDS011;11634;42.734;23.298;2022-09-09T05:18:18;15.20;;;13.80;;
22937;SDS011;11634;42.734;23.298;2022-09-09T05:20:44;15.00;;;13.32;;
22937;SDS011;11634;42.734;23.298;2022-09-09T05:23:09;14.20;;;12.80;;
22937;SDS011;11634;42.734;23.298;2022-09-09T05:25:37;17.20;;;13.15;;
22937;SDS011;11634;42.734;23.298;2022-09-09T05:28:04;18.15;;;12.85;;
22937;SDS011;11634;42.734;23.298;2022-09-09T05:30:32;14.55;;;12.60;;
22937;SDS011;11634;42.734;23.298;2022-09-09T05:33:00;15.18;;;12.40;;
22937;SDS011;11634;42.734;23.298;2022-09-09T05:35:27;12.85;;;11.57;;
22937;SDS011;11634;42.734;23.298;2022-09-09T05:37:53;13.82;;;12.05;;
22937;SDS011;11634;42.734;23.298;2022-09-09T05:40:18;13.30;;;11.85;;
22937;SDS011;11634;42.734;23.298;2022-09-09T05:42:44;16.60;;;11.60;;
22937;SDS011;11634;42.734;23.298;2022-09-09T05:45:10;13.38;;;10.60;;
22937;SDS011;11634;42.734;23.298;2022-09-09T05:47:37;13.68;;;10.48;;
22937;SDS011;11634;42.734;23.298;2022-09-09T05:50:06;14.18;;;10.68;;
22937;SDS011;11634;42.734;23.298;2022-09-09T05:52:33;11.80;;;9.90;;
22937;SDS011;11634;42.734;23.298;2022-09-09T05:54:59;12.77;;;11.35;;
22937;SDS011;11634;42.734;23.298;2022-09-09T05:57:24;14.70;;;11.15;;
22937;SDS011;11634;42.734;23.298;2022-09-09T05:59:50;14.85;;;11.05;;
22937;SDS011;11634;42.734;23.298;2022-09-09T06:02:16;12.50;;;11.20;;
22937;SDS011;11634;42.734;23.298;2022-09-09T06:04:42;14.13;;;11.55;;
22937;SDS011;11634;42.734;23.298;2022-09-09T06:07:07;15.98;;;11.57;;
22937;SDS011;11634;42.734;23.298;2022-09-09T06:09:34;23.90;;;12.68;;
22937;SDS011;11634;42.734;23.298;2022-09-09T06:12:00;19.90;;;13.35;;
22937;SDS011;11634;42.734;23.298;2022-09-09T06:14:26;14.82;;;11.90;;
22937;SDS011;11634;42.734;23.298;2022-09-09T06:16:56;15.98;;;12.02;;
22937;SDS011;11634;42.734;23.298;2022-09-09T06:19:28;22.73;;;12.50;;
22937;SDS011;11634;42.734;23.298;2022-09-09T06:21:56;15.70;;;12.50;;
22937;SDS011;11634;42.734;23.298;2022-09-09T06:24:22;17.63;;;13.27;;
22937;SDS011;11634;42.734;23.298;2022-09-09T06:26:48;18.70;;;12.25;;
22937;SDS011;11634;42.734;23.298;2022-09-09T06:29:25;14.93;;;11.45;;
22937;SDS011;11634;42.734;23.298;2022-09-09T06:31:52;16.08;;;10.68;;
22937;SDS011;11634;42.734;23.298;2022-09-09T06:34:21;13.05;;;10.68;;
22937;SDS011;11634;42.734;23.298;2022-09-09T06:36:50;12.82;;;9.60;;
22937;SDS011;11634;42.734;23.298;2022-09-09T06:39:17;14.50;;;9.75;;
22937;SDS011;11634;42.734;23.298;2022-09-09T06:41:44;10.70;;;9.60;;
22937;SDS011;11634;42.734;23.298;2022-09-09T06:44:46;10.75;;;9.25;;
22937;SDS011;11634;42.734;23.298;2022-09-09T06:47:20;11.38;;;8.38;;
22937;SDS011;11634;42.734;23.298;2022-09-09T06:49:46;11.88;;;8.18;;
22937;SDS011;11634;42.734;23.298;2022-09-09T06:52:12;9.98;;;7.95;;
22937;SDS011;11634;42.734;23.298;2022-09-09T06:54:38;10.18;;;7.85;;
22937;SDS011;11634;42.734;23.298;2022-09-09T06:57:04;11.50;;;7.53;;
22937;SDS011;11634;42.734;23.298;2022-09-09T06:59:32;13.02;;;8.00;;
22937;SDS011;11634;42.734;23.298;2022-09-09T07:01:58;12.95;;;7.32;;
22937;SDS011;11634;42.734;23.298;2022-09-09T07:04:24;11.85;;;8.30;;
22937;SDS011;11634;42.734;23.298;2022-09-09T07:06:50;10.13;;;7.18;;
22937;SDS011;11634;42.734;23.298;2022-09-09T07:09:21;9.52;;;7.78;;
22937;SDS011;11634;42.734;23.298;2022-09-09T07:11:50;8.90;;;7.63;;
22937;SDS011;11634;42.734;23.298;2022-09-09T07:14:21;11.70;;;7.38;;
22937;SDS011;11634;42.734;23.298;2022-09-09T07:16:52;11.00;;;7.07;;
22937;SDS011;11634;42.734;23.298;2022-09-09T07:19:18;16.52;;;7.10;;
22937;SDS011;11634;42.734;23.298;2022-09-09T07:21:46;14.23;;;7.63;;
22937;SDS011;11634;42.734;23.298;2022-09-09T07:24:15;8.40;;;6.50;;
22937;SDS011;11634;42.734;23.298;2022-09-09T07:26:43;7.60;;;6.80;;
22937;SDS011;11634;42.734;23.298;2022-09-09T07:29:10;8.82;;;6.88;;
22937;SDS011;11634;42.734;23.298;2022-09-09T07:31:39;10.82;;;7.65;;
22937;SDS011;11634;42.734;23.298;2022-09-09T07:34:09;12.48;;;7.15;;
22937;SDS011;11634;42.734;23.298;2022-09-09T07:36:36;15.70;;;7.65;;
22937;SDS011;11634;42.734;23.298;2022-09-09T07:39:06;14.30;;;6.90;;
22937;SDS011;11634;42.734;23.298;2022-09-09T07:41:44;10.27;;;7.18;;
22937;SDS011;11634;42.734;23.298;2022-09-09T07:44:13;9.35;;;7.10;;
22937;SDS011;11634;42.734;23.298;2022-09-09T07:46:46;11.02;;;7.00;;
22937;SDS011;11634;42.734;23.298;2022-09-09T07:49:16;12.18;;;6.97;;
22937;SDS011;11634;42.734;23.298;2022-09-09T07:51:44;11.75;;;6.65;;
22937;SDS011;11634;42.734;23.298;2022-09-09T07:54:13;12.48;;;7.30;;
22937;SDS011;11634;42.734;23.298;2022-09-09T07:56:43;10.50;;;7.00;;
22937;SDS011;11634;42.734;23.298;2022-09-09T07:59:10;9.77;;;7.10;;
22937;SDS011;11634;42.734;23.298;2022-09-09T08:01:40;9.55;;;6.60;;
22937;SDS011;11634;42.734;23.298;2022-09-09T08:04:11;8.85;;;6.47;;
22937;SDS011;11634;42.734;23.298;2022-09-09T08:06:45;10.82;;;7.07;;
22937;SDS011;11634;42.734;23.298;2022-09-09T08:09:17;12.15;;;7.05;;
22937;SDS011;11634;42.734;23.298;2022-09-09T08:11:45;15.45;;;6.88;;
22937;SDS011;11634;42.734;23.298;2022-09-09T08:14:11;10.48;;;6.75;;
22937;SDS011;11634;42.734;23.298;2022-09-09T08:16:38;9.52;;;6.88;;
22937;SDS011;11634;42.734;23.298;2022-09-09T08:19:06;10.95;;;7.45;;
22937;SDS011;11634;42.734;23.298;2022-09-09T08:21:33;9.70;;;6.65;;
22937;SDS011;11634;42.734;23.298;2022-09-09T08:24:02;11.52;;;7.93;;
22937;SDS011;11634;42.734;23.298;2022-09-09T08:26:31;11.68;;;7.20;;
22937;SDS011;11634;42.734;23.298;2022-09-09T08:29:00;11.20;;;6.57;;
22937;SDS011;11634;42.734;23.298;2022-09-09T08:31:34;10.75;;;6.85;;
22937;SDS011;11634;42.734;23.298;2022-09-09T08:34:04;8.18;;;6.65;;
22937;SDS011;11634;42.734;23.298;2022-09-09T08:36:33;8.55;;;6.20;;
22937;SDS011;11634;42.734;23.298;2022-09-09T08:39:03;8.50;;;6.75;;
22937;SDS011;11634;42.734;23.298;2022-09-09T08:58:00;11.98;;;6.47;;
22937;SDS011;11634;42.734;23.298;2022-09-09T09:06:38;6.25;;;5.10;;
22937;SDS011;11634;42.734;23.298;2022-09-09T09:11:54;8.68;;;5.60;;
22937;SDS011;11634;42.734;23.298;2022-09-09T09:14:27;8.00;;;6.00;;
22937;SDS011;11634;42.734;23.298;2022-09-09T09:17:00;9.27;;;5.75;;
22937;SDS011;11634;42.734;23.298;2022-09-09T09:19:29;7.30;;;5.90;;
22937;SDS011;11634;42.734;23.298;2022-09-09T09:25:19;11.52;;;6.80;;
22937;SDS011;11634;42.734;23.298;2022-09-09T09:30:34;9.98;;;6.05;;
22937;SDS011;11634;42.734;23.298;2022-09-09T09:33:14;7.70;;;6.20;;
22937;SDS011;11634;42.734;23.298;2022-09-09T09:35:41;10.48;;;6.80;;
22937;SDS011;11634;42.734;23.298;2022-09-09T09:38:18;8.25;;;5.20;;
22937;SDS011;11634;42.734;23.298;2022-09-09T09:40:55;7.32;;;6.20;;
22937;SDS011;11634;42.734;23.298;2022-09-09T09:43:28;8.70;;;6.15;;
22937;SDS011;11634;42.734;23.298;2022-09-09T09:46:05;10.13;;;6.45;;
22937;SDS011;11634;42.734;23.298;2022-09-09T09:48:43;10.25;;;6.25;;
22937;SDS011;11634;42.734;23.298;2022-09-09T09:51:12;8.35;;;6.43;;
22937;SDS011;11634;42.734;23.298;2022-09-09T09:53:42;9.02;;;6.72;;
22937;SDS011;11634;42.734;23.298;2022-09-09T09:56:11;13.88;;;6.85;;
22937;SDS011;11634;42.734;23.298;2022-09-09T10:01:29;8.00;;;7.18;;
22937;SDS011;11634;42.734;23.298;2022-09-09T10:04:01;13.02;;;6.72;;
22937;SDS011;11634;42.734;23.298;2022-09-09T10:06:55;8.75;;;6.38;;
22937;SDS011;11634;42.734;23.298;2022-09-09T10:09:25;13.20;;;10.52;;
22937;SDS011;11634;42.734;23.298;2022-09-09T10:17:31;10.95;;;6.50;;
22937;SDS011;11634;42.734;23.298;2022-09-09T10:25:38;10.07;;;5.93;;
22937;SDS011;11634;42.734;23.298;2022-09-09T10:37:13;9.10;;;6.35;;
22937;SDS011;11634;42.734;23.298;2022-09-09T10:40:02;8.65;;;6.30;;
22937;SDS011;11634;42.734;23.298;2022-09-09T10:42:43;11.70;;;6.90;;
22937;SDS011;11634;42.734;23.298;2022-09-09T10:48:30;10.10;;;6.72;;
22937;SDS011;11634;42.734;23.298;2022-09-09T10:54:51;13.20;;;6.90;;
22937;SDS011;11634;42.734;23.298;2022-09-09T10:57:08;14.48;;;6.65;;
22937;SDS011;11634;42.734;23.298;2022-09-09T10:59:43;12.23;;;7.28;;
22937;SDS011;11634;42.734;23.298;2022-09-09T11:02:22;11.95;;;6.72;;
22937;SDS011;11634;42.734;23.298;2022-09-09T11:07:57;10.68;;;7.00;;
22937;SDS011;11634;42.734;23.298;2022-09-09T11:16:20;9.05;;;6.60;;
22937;SDS011;11634;42.734;23.298;2022-09-09T11:21:44;7.38;;;6.68;;
22937;SDS011;11634;42.734;23.298;2022-09-09T11:24:13;9.23;;;6.95;;
22937;SDS011;11634;42.734;23.298;2022-09-09T11:26:43;8.68;;;7.43;;
22937;SDS011;11634;42.734;23.298;2022-09-09T11:34:32;12.27;;;7.28;;
22937;SDS011;11634;42.734;23.298;2022-09-09T11:40:14;9.38;;;7.28;;
22937;SDS011;11634;42.734;23.298;2022-09-09T11:42:46;8.88;;;7.13;;
22937;SDS011;11634;42.734;23.298;2022-09-09T11:45:24;8.90;;;7.13;;
22937;SDS011;11634;42.734;23.298;2022-09-09T11:47:55;9.82;;;7.13;;
22937;SDS011;11634;42.734;23.298;2022-09-09T11:50:27;8.77;;;7.00;;
22937;SDS011;11634;42.734;23.298;2022-09-09T11:56:00;8.70;;;7.00;;
22937;SDS011;11634;42.734;23.298;2022-09-09T11:58:29;9.52;;;7.13;;
22937;SDS011;11634;42.734;23.298;2022-09-09T12:01:12;13.98;;;7.20;;
22937;SDS011;11634;42.734;23.298;2022-09-09T12:03:44;11.23;;;7.68;;
22937;SDS011;11634;42.734;23.298;2022-09-09T12:06:33;8.73;;;6.78;;
22937;SDS011;11634;42.734;23.298;2022-09-09T12:09:19;11.05;;;7.50;;
22937;SDS011;11634;42.734;23.298;2022-09-09T12:11:50;11.35;;;7.13;;
22937;SDS011;11634;42.734;23.298;2022-09-09T12:14:43;11.90;;;7.65;;
22937;SDS011;11634;42.734;23.298;2022-09-09T12:17:24;10.00;;;7.07;;
22937;SDS011;11634;42.734;23.298;2022-09-09T12:25:29;9.45;;;7.82;;
22937;SDS011;11634;42.734;23.298;2022-09-09T12:28:20;11.95;;;8.48;;
22937;SDS011;11634;42.734;23.298;2022-09-09T12:30:52;9.25;;;7.78;;
22937;SDS011;11634;42.734;23.298;2022-09-09T12:33:33;10.52;;;7.47;;
22937;SDS011;11634;42.734;23.298;2022-09-09T12:36:05;11.68;;;7.78;;
22937;SDS011;11634;42.734;23.298;2022-09-09T12:38:38;8.63;;;6.75;;
22937;SDS011;11634;42.734;23.298;2022-09-09T12:41:06;12.65;;;7.53;;
22937;SDS011;11634;42.734;23.298;2022-09-09T12:43:44;9.40;;;7.97;;
22937;SDS011;11634;42.734;23.298;2022-09-09T12:46:12;13.13;;;7.55;;
22937;SDS011;11634;42.734;23.298;2022-09-09T12:48:47;12.07;;;7.90;;
22937;SDS011;11634;42.734;23.298;2022-09-09T12:51:45;11.43;;;7.88;;
22937;SDS011;11634;42.734;23.298;2022-09-09T12:54:12;9.45;;;7.57;;
22937;SDS011;11634;42.734;23.298;2022-09-09T12:56:39;8.52;;;7.57;;
22937;SDS011;11634;42.734;23.298;2022-09-09T12:59:05;8.15;;;7.32;;
22937;SDS011;11634;42.734;23.298;2022-09-09T13:01:31;10.10;;;7.78;;
22937;SDS011;11634;42.734;23.298;2022-09-09T13:03:58;9.98;;;7.75;;
22937;SDS011;11634;42.734;23.298;2022-09-09T13:06:25;9.00;;;7.07;;
22937;SDS011;11634;42.734;23.298;2022-09-09T13:08:53;11.93;;;5.80;;
22937;SDS011;11634;42.734;23.298;2022-09-09T13:11:26;12.60;;;5.95;;
22937;SDS011;11634;42.734;23.298;2022-09-09T13:14:00;12.43;;;5.75;;
22937;SDS011;11634;42.734;23.298;2022-09-09T13:16:28;10.48;;;5.88;;
22937;SDS011;11634;42.734;23.298;2022-09-09T13:18:59;10.30;;;5.60;;
22937;SDS011;11634;42.734;23.298;2022-09-09T13:21:36;10.40;;;6.38;;
22937;SDS011;11634;42.734;23.298;2022-09-09T13:24:04;9.63;;;5.40;;
22937;SDS011;11634;42.734;23.298;2022-09-09T13:26:32;6.85;;;5.78;;
22937;SDS011;11634;42.734;23.298;2022-09-09T13:29:18;9.10;;;5.45;;
22937;SDS011;11634;42.734;23.298;2022-09-09T13:31:44;7.45;;;5.70;;
22937;SDS011;11634;42.734;23.298;2022-09-09T13:34:27;12.48;;;6.85;;
22937;SDS011;11634;42.734;23.298;2022-09-09T13:37:01;7.53;;;6.05;;
22937;SDS011;11634;42.734;23.298;2022-09-09T13:39:33;9.15;;;5.75;;
22937;SDS011;11634;42.734;23.298;2022-09-09T13:42:01;12.07;;;5.95;;
22937;SDS011;11634;42.734;23.298;2022-09-09T13:44:29;11.57;;;6.63;;
22937;SDS011;11634;42.734;23.298;2022-09-09T13:49:53;8.30;;;6.00;;
22937;SDS011;11634;42.734;23.298;2022-09-09T13:52:18;9.88;;;6.75;;
22937;SDS011;11634;42.734;23.298;2022-09-09T13:54:48;12.13;;;6.38;;
22937;SDS011;11634;42.734;23.298;2022-09-09T13:57:21;9.07;;;6.72;;
22937;SDS011;11634;42.734;23.298;2022-09-09T13:59:52;13.77;;;6.38;;
22937;SDS011;11634;42.734;23.298;2022-09-09T14:02:20;9.50;;;5.85;;
22937;SDS011;11634;42.734;23.298;2022-09-09T14:04:46;11.32;;;5.90;;
22937;SDS011;11634;42.734;23.298;2022-09-09T14:07:15;9.20;;;6.00;;
22937;SDS011;11634;42.734;23.298;2022-09-09T14:09:42;11.38;;;5.90;;
22937;SDS011;11634;42.734;23.298;2022-09-09T14:12:09;13.85;;;5.63;;
22937;SDS011;11634;42.734;23.298;2022-09-09T14:14:36;9.23;;;4.82;;
22937;SDS011;11634;42.734;23.298;2022-09-09T14:17:02;9.80;;;5.43;;
22937;SDS011;11634;42.734;23.298;2022-09-09T14:19:29;10.70;;;5.47;;
22937;SDS011;11634;42.734;23.298;2022-09-09T14:21:58;13.18;;;5.50;;
22937;SDS011;11634;42.734;23.298;2022-09-09T14:24:24;7.93;;;5.90;;
22937;SDS011;11634;42.734;23.298;2022-09-09T14:26:51;10.38;;;7.30;;
22937;SDS011;11634;42.734;23.298;2022-09-09T14:29:17;9.70;;;6.13;;
22937;SDS011;11634;42.734;23.298;2022-09-09T14:31:42;11.80;;;5.25;;
22937;SDS011;11634;42.734;23.298;2022-09-09T14:34:08;11.00;;;5.25;;
22937;SDS011;11634;42.734;23.298;2022-09-09T14:36:36;9.23;;;5.45;;
22937;SDS011;11634;42.734;23.298;2022-09-09T14:39:02;8.85;;;5.43;;
22937;SDS011;11634;42.734;23.298;2022-09-09T14:41:29;12.50;;;5.85;;
22937;SDS011;11634;42.734;23.298;2022-09-09T14:43:55;10.80;;;5.55;;
22937;SDS011;11634;42.734;23.298;2022-09-09T14:46:21;6.65;;;5.35;;
22937;SDS011;11634;42.734;23.298;2022-09-09T14:48:48;9.73;;;5.25;;
22937;SDS011;11634;42.734;23.298;2022-09-09T14:51:15;11.50;;;6.00;;
22937;SDS011;11634;42.734;23.298;2022-09-09T14:53:47;13.40;;;6.72;;
22937;SDS011;11634;42.734;23.298;2022-09-09T14:56:16;9.15;;;7.00;;
22937;SDS011;11634;42.734;23.298;2022-09-09T14:58:45;11.77;;;6.93;;
22937;SDS011;11634;42.734;23.298;2022-09-09T15:01:12;14.90;;;7.65;;
22937;SDS011;11634;42.734;23.298;2022-09-09T15:03:40;13.23;;;7.25;;
22937;SDS011;11634;42.734;23.298;2022-09-09T15:06:07;9.23;;;6.53;;
22937;SDS011;11634;42.734;23.298;2022-09-09T15:08:35;17.08;;;7.68;;
22937;SDS011;11634;42.734;23.298;2022-09-09T15:11:01;10.02;;;6.70;;
22937;SDS011;11634;42.734;23.298;2022-09-09T15:13:28;13.18;;;7.00;;
22937;SDS011;11634;42.734;23.298;2022-09-09T15:15:54;14.00;;;7.13;;
22937;SDS011;11634;42.734;23.298;2022-09-09T15:18:20;11.75;;;6.50;;
22937;SDS011;11634;42.734;23.298;2022-09-09T15:20:46;9.85;;;6.38;;
22937;SDS011;11634;42.734;23.298;2022-09-09T15:23:13;10.82;;;6.82;;
22937;SDS011;11634;42.734;23.298;2022-09-09T15:25:49;10.25;;;6.63;;
22937;SDS011;11634;42.734;23.298;2022-09-09T15:28:18;14.40;;;6.63;;
22937;SDS011;11634;42.734;23.298;2022-09-09T15:30:46;11.55;;;6.00;;
22937;SDS011;11634;42.734;23.298;2022-09-09T15:33:13;10.38;;;5.82;;
22937;SDS011;11634;42.734;23.298;2022-09-09T15:35:39;13.63;;;6.35;;
22937;SDS011;11634;42.734;23.298;2022-09-09T15:38:04;17.92;;;6.93;;
22937;SDS011;11634;42.734;23.298;2022-09-09T15:40:30;12.32;;;7.38;;
22937;SDS011;11634;42.734;23.298;2022-09-09T15:42:57;13.48;;;7.07;;
22937;SDS011;11634;42.734;23.298;2022-09-09T15:45:23;14.07;;;7.25;;
22937;SDS011;11634;42.734;23.298;2022-09-09T15:47:49;11.40;;;7.38;;
22937;SDS011;11634;42.734;23.298;2022-09-09T15:50:15;12.98;;;6.68;;
22937;SDS011;11634;42.734;23.298;2022-09-09T15:52:41;9.45;;;6.78;;
22937;SDS011;11634;42.734;23.298;2022-09-09T15:55:06;9.20;;;5.78;;
22937;SDS011;11634;42.734;23.298;2022-09-09T15:57:33;12.70;;;6.00;;
22937;SDS011;11634;42.734;23.298;2022-09-09T15:59:59;11.90;;;6.05;;
22937;SDS011;11634;42.734;23.298;2022-09-09T16:02:26;8.32;;;5.70;;
22937;SDS011;11634;42.734;23.298;2022-09-09T16:04:52;9.82;;;6.00;;
22937;SDS011;11634;42.734;23.298;2022-09-09T16:07:17;8.93;;;6.63;;
22937;SDS011;11634;42.734;23.298;2022-09-09T16:09:43;12.05;;;6.22;;
22937;SDS011;11634;42.734;23.298;2022-09-09T16:12:09;11.40;;;6.53;;
22937;SDS011;11634;42.734;23.298;2022-09-09T16:14:37;12.68;;;6.53;;
22937;SDS011;11634;42.734;23.298;2022-09-09T16:17:04;8.75;;;5.93;;
22937;SDS011;11634;42.734;23.298;2022-09-09T16:19:31;15.00;;;6.80;;
22937;SDS011;11634;42.734;23.298;2022-09-09T16:21:57;11.32;;;7.03;;
22937;SDS011;11634;42.734;23.298;2022-09-09T16:24:23;12.80;;;7.65;;
22937;SDS011;11634;42.734;23.298;2022-09-09T16:26:50;13.10;;;6.97;;
22937;SDS011;11634;42.734;23.298;2022-09-09T16:29:18;13.32;;;7.32;;
22937;SDS011;11634;42.734;23.298;2022-09-09T16:31:45;14.63;;;7.60;;
22937;SDS011;11634;42.734;23.298;2022-09-09T16:34:12;14.52;;;7.15;;
22937;SDS011;11634;42.734;23.298;2022-09-09T16:36:38;12.13;;;6.45;;
22937;SDS011;11634;42.734;23.298;2022-09-09T16:39:09;13.00;;;6.57;;
22937;SDS011;11634;42.734;23.298;2022-09-09T16:41:40;7.50;;;6.65;;
22937;SDS011;11634;42.734;23.298;2022-09-09T16:44:09;11.57;;;6.55;;
22937;SDS011;11634;42.734;23.298;2022-09-09T16:46:36;8.18;;;7.03;;
22937;SDS011;11634;42.734;23.298;2022-09-09T16:49:04;9.20;;;6.40;;
22937;SDS011;11634;42.734;23.298;2022-09-09T16:51:34;7.85;;;6.90;;
22937;SDS011;11634;42.734;23.298;2022-09-09T16:54:05;14.10;;;7.68;;
22937;SDS011;11634;42.734;23.298;2022-09-09T16:56:33;10.13;;;7.13;;
22937;SDS011;11634;42.734;23.298;2022-09-09T16:59:04;11.20;;;8.02;;
22937;SDS011;11634;42.734;23.298;2022-09-09T17:01:32;9.43;;;7.40;;